Arkville, New York
Current Conditions -  °F | °C
As of 6:55 AM on Friday 28 Nov 2014 (Local Time) from KMSV Reporting Station
Overcast Overcast  
Wind Chill: 14°   Ceiling: 2800
Heat Index: 25°   Visibility: 10mi
Dew Point: 19°   Wind: 12mph
Humidity: 80%   Direction: 330°NNW
Pressure: 30.08"   Gusts: NA
Location:  42.15°N, 74.62°W
Report Text: KMSV 281155Z AUTO 33010KT 10SM OVC028 M04/M07 A3008 RMK AO1 11040 21060 52020
Loading
Personal Weather Stations






























Interactive Weather Map New forecast layout! Learn more

10-Day Weather Forecast

Advertisements
Track Severe Weather on mobile